Impacts TAF Board
For situational awareness. Not to be used for flight planning purposes.
IDs:

KORD - Chicago/O'Hare Intl, IL, US

Issued at 0256 UTC 19 Feb 2019
Updated at 0329 UTC 19 Feb 2019
Potential Impact None Slight Moderate High
Time<<20/04Z 20/05Z 20/06Z 20/07Z 20/08Z 20/09Z 20/10Z 20/11Z 20/12Z 20/13Z 20/14Z 20/15Z 20/16Z
Type PRVL PRVL
VIS >6 >6
CIG 100 100
Cover OVC OVC
FltCat VFR VFR
WX -- --
WDir 100 100
WSpd 9 9
WGst -- --
Raw TAF
KORD 190256Z 1903/2006 31005KT P6SM SCT027
  FM191100 VRB04KT P6SM FEW250
  FM191800 11006KT P6SM SCT040 BKN200
  FM200200 10009KT P6SM SCT040 OVC100


METAR Board
Radar Display
Forecast Discussion
For situational awareness. Not to be used for flight planning purposes.